createdAt,value
2018-09-05T00:00:36.188Z,15.6
2018-09-05T00:01:26.251Z,15.6
2018-09-05T00:02:16.035Z,15.6
2018-09-05T00:03:06.105Z,15.6
2018-09-05T00:03:56.177Z,15.6
2018-09-05T00:04:46.512Z,15.6
2018-09-05T00:05:36.018Z,15.5
2018-09-05T00:06:26.889Z,15.5
2018-09-05T00:07:16.724Z,15.5
2018-09-05T00:08:06.495Z,15.5
2018-09-05T00:08:57.134Z,15.5
2018-09-05T00:09:46.894Z,15.5
2018-09-05T00:10:37.052Z,15.5
2018-09-05T00:11:27.019Z,15.5
2018-09-05T00:12:16.812Z,15.5
2018-09-05T00:31:38.808Z,15.3
2018-09-05T00:32:28.895Z,15.3
2018-09-05T00:33:18.957Z,15.3
2018-09-05T00:34:08.734Z,15.3
2018-09-05T00:34:58.796Z,15.3
2018-09-05T00:35:49.137Z,15.3
2018-09-05T00:36:39.207Z,15.3
2018-09-05T00:37:29.279Z,15.3
2018-09-05T00:38:19.330Z,15.3
2018-09-05T00:39:09.105Z,15.3
2018-09-05T00:39:59.188Z,15.3
2018-09-05T00:40:49.235Z,15.3
2018-09-05T00:41:39.622Z,15.3
2018-09-05T00:42:29.655Z,15.3
2018-09-05T00:43:19.713Z,15.3
2018-09-05T00:44:09.502Z,15.3
2018-09-05T00:44:59.557Z,15.3
2018-09-05T00:45:49.904Z,15.3
2018-09-05T00:46:39.682Z,15.3
2018-09-05T00:47:30.040Z,15.3
2018-09-05T00:48:19.239Z,15.3
2018-09-05T00:49:09.869Z,15.3
2018-09-05T00:49:59.929Z,15.3
2018-09-05T00:50:50.282Z,15.3
2018-09-05T00:51:40.359Z,15.2
2018-09-05T00:52:30.415Z,15.3
2018-09-05T00:53:19.621Z,15.2
2018-09-05T00:54:10.267Z,15.2
2018-09-05T00:55:00.336Z,15.2
2018-09-05T00:55:50.649Z,15.2
2018-09-05T00:56:40.714Z,15.2
2018-09-05T00:57:30.789Z,15.2
2018-09-05T00:58:20.591Z,15.2
2018-09-05T00:59:10.946Z,15.2
2018-09-05T01:00:00.731Z,15.2
2018-09-05T01:00:50.781Z,15.2
2018-09-05T01:01:40.827Z,15.2
2018-09-05T01:02:30.878Z,15.2
2018-09-05T01:03:20.923Z,15.2
2018-09-05T01:04:11.287Z,15.1
2018-09-05T01:05:01.062Z,15.1
2018-09-05T01:05:51.122Z,15.1
2018-09-05T01:06:41.500Z,15.1
2018-09-05T01:07:31.547Z,15.1
2018-09-05T01:08:21.606Z,15.1
2018-09-05T01:09:11.703Z,15.1
2018-09-05T01:10:01.948Z,15.1
2018-09-05T01:10:51.798Z,15.1
2018-09-05T01:11:41.854Z,15.1
2018-09-05T01:12:31.314Z,15.1
2018-09-05T01:13:22.251Z,15.1
2018-09-05T01:14:11.777Z,15.1
2018-09-05T01:15:01.564Z,15.1
2018-09-05T01:15:51.896Z,15.1
2018-09-05T01:16:42.248Z,15.1
2018-09-05T01:17:32.029Z,15.1
2018-09-05T01:18:22.368Z,15.1
2018-09-05T01:19:12.447Z,15.1
2018-09-05T01:20:02.533Z,15.1
2018-09-05T01:20:52.561Z,15.1
2018-09-05T01:21:42.062Z,15.1
2018-09-05T01:22:32.683Z,15.1
2018-09-05T01:23:22.764Z,15.1
2018-09-05T01:24:12.835Z,15.1
2018-09-05T01:25:02.895Z,15.1
2018-09-05T01:25:52.978Z,15.1
2018-09-05T01:26:42.748Z,15
2018-09-05T01:27:33.571Z,15
2018-09-05T01:28:22.860Z,15
2018-09-05T01:29:13.208Z,15
2018-09-05T01:30:03.004Z,15
2018-09-05T01:30:53.335Z,15
2018-09-05T01:31:43.123Z,15
2018-09-05T01:32:33.461Z,15
2018-09-05T01:33:23.267Z,14.9
2018-09-05T01:34:13.850Z,14.9
2018-09-05T01:35:03.385Z,14.9
2018-09-05T01:35:53.754Z,14.9
2018-09-05T01:36:43.518Z,14.9
2018-09-05T01:37:33.892Z,14.9
2018-09-05T01:38:23.354Z,14.9
2018-09-05T01:39:14.229Z,14.9
2018-09-05T01:40:04.059Z,14.9
2018-09-05T01:40:54.102Z,14.9
2018-09-05T01:41:44.195Z,14.9
2018-09-05T01:42:33.945Z,14.9
2018-09-05T01:43:24.292Z,14.9
2018-09-05T01:44:14.370Z,14.9
2018-09-05T01:45:04.164Z,14.9
2018-09-05T01:45:54.209Z,14.9
2018-09-05T01:46:44.579Z,14.9
2018-09-05T01:47:34.625Z,14.9
2018-09-05T01:48:24.699Z,14.9
2018-09-05T01:49:14.467Z,14.9
2018-09-05T01:50:04.527Z,14.9
2018-09-05T01:50:54.634Z,14.9
2018-09-05T01:51:44.956Z,14.9
2018-09-05T01:52:35.008Z,14.8
2018-09-05T01:53:24.831Z,14.8
2018-09-05T01:54:15.383Z,14.8
2018-09-05T01:55:04.944Z,14.8
2018-09-05T01:55:55.269Z,14.8
2018-09-05T01:56:45.066Z,14.8
2018-09-05T01:57:35.416Z,14.8
2018-09-05T01:58:25.176Z,14.8
2018-09-05T01:59:15.530Z,14.8
2018-09-05T02:00:05.306Z,14.8
2018-09-05T02:00:55.661Z,14.8
2018-09-05T02:01:45.721Z,14.8
2018-09-05T02:02:35.789Z,14.8
2018-09-05T02:03:25.854Z,14.8
2018-09-05T02:04:15.911Z,14.8
2018-09-05T02:05:05.985Z,14.8
2018-09-05T02:05:56.044Z,14.8
2018-09-05T02:06:45.842Z,14.8
2018-09-05T02:07:35.883Z,14.8
2018-09-05T02:08:26.715Z,14.8
2018-09-05T02:09:16.053Z,14.7
2018-09-05T02:10:06.121Z,14.7
2018-09-05T02:10:56.426Z,14.7
2018-09-05T02:11:46.499Z,14.7
2018-09-05T02:12:36.557Z,14.7
2018-09-05T02:13:26.615Z,14.7
2018-09-05T02:14:16.400Z,14.7
2018-09-05T02:15:06.468Z,14.7
2018-09-05T02:15:56.800Z,14.7
2018-09-05T02:16:46.890Z,14.7
2018-09-05T02:17:36.939Z,14.7
2018-09-05T02:18:26.470Z,14.7
2018-09-05T02:19:17.082Z,14.7
2018-09-05T02:20:07.137Z,14.7
2018-09-05T02:20:57.212Z,14.7
2018-09-05T02:21:47.054Z,14.7
2018-09-05T02:22:37.037Z,14.7
2018-09-05T02:23:27.401Z,14.6
2018-09-05T02:24:17.161Z,14.7
2018-09-05T02:25:07.529Z,14.6
2018-09-05T02:25:57.589Z,14.6
2018-09-05T02:26:47.676Z,14.7
2018-09-05T02:27:37.702Z,14.7
2018-09-05T02:28:27.782Z,14.6
2018-09-05T02:29:17.555Z,14.7
2018-09-05T02:30:07.919Z,14.6
2018-09-05T02:30:58.009Z,14.6
2018-09-05T02:31:47.774Z,14.6
2018-09-05T02:32:37.811Z,14.6
2018-09-05T02:33:28.194Z,14.6
2018-09-05T02:34:17.953Z,14.6
2018-09-05T02:35:07.999Z,14.6
2018-09-05T02:35:58.356Z,14.6
2018-09-05T02:36:48.679Z,14.6
2018-09-05T02:37:38.491Z,14.6
2018-09-05T02:38:28.276Z,14.6
2018-09-05T02:39:18.336Z,14.6
2018-09-05T02:40:08.676Z,14.7
2018-09-05T02:40:58.788Z,14.7
2018-09-05T02:41:48.814Z,14.6
2018-09-05T02:42:38.600Z,14.6
2018-09-05T02:43:28.774Z,14.6
2018-09-05T02:44:19.023Z,14.7
2018-09-05T02:45:09.023Z,14.6
2018-09-05T02:45:59.065Z,14.6
2018-09-05T02:46:49.458Z,14.6
2018-09-05T02:47:39.256Z,14.7
2018-09-05T02:48:29.318Z,14.6
2018-09-05T02:49:19.428Z,14.6
2018-09-05T02:50:09.468Z,14.6
2018-09-05T02:50:59.503Z,14.7
2018-09-05T02:51:49.598Z,14.6
2018-09-05T02:52:39.368Z,14.7
2018-09-05T02:53:29.713Z,14.6
2018-09-05T02:54:19.793Z,14.6
2018-09-05T02:55:09.840Z,14.6
2018-09-05T02:56:00.387Z,14.6
2018-09-05T02:56:49.681Z,14.7
2018-09-05T02:57:40.040Z,14.7
2018-09-05T02:58:29.871Z,14.6
2018-09-05T02:59:19.588Z,14.7
2018-09-05T03:00:09.940Z,14.7
2018-09-05T03:01:00.302Z,14.6
2018-09-05T03:01:50.349Z,14.6
2018-09-05T03:02:39.841Z,14.7
2018-09-05T03:03:30.486Z,14.7
2018-09-05T03:04:20.262Z,14.7
2018-09-05T03:05:10.608Z,14.6
2018-09-05T03:06:00.394Z,14.7
2018-09-05T03:06:50.822Z,14.7
2018-09-05T03:07:41.059Z,14.6
2018-09-05T03:08:30.856Z,14.7
2018-09-05T03:09:21.090Z,14.6
2018-09-05T03:10:10.707Z,14.6
2018-09-05T03:11:00.771Z,14.6
2018-09-05T03:11:50.867Z,14.6
2018-09-05T03:12:41.151Z,14.6
2018-09-05T03:13:31.261Z,14.6
2018-09-05T03:14:20.735Z,14.6
2018-09-05T03:15:11.385Z,14.6
2018-09-05T03:16:01.456Z,14.6
2018-09-05T03:16:50.941Z,14.6
2018-09-05T03:17:41.017Z,14.6
2018-09-05T03:18:31.353Z,14.6
2018-09-05T03:19:21.703Z,14.6
2018-09-05T03:20:11.478Z,14.6
2018-09-05T03:21:02.085Z,14.6
2018-09-05T03:21:51.626Z,14.5
2018-09-05T03:22:41.968Z,14.5
2018-09-05T03:23:31.698Z,14.5
2018-09-05T03:24:21.541Z,14.5
2018-09-05T03:25:12.548Z,14.5
2018-09-05T03:26:01.938Z,14.5
2018-09-05T03:26:52.293Z,14.5
2018-09-05T03:27:42.340Z,14.5
2018-09-05T03:28:32.410Z,14.5
2018-09-05T03:29:22.477Z,14.5
2018-09-05T03:30:12.557Z,14.5
2018-09-05T03:31:02.247Z,14.4
2018-09-05T03:31:52.681Z,14.5
2018-09-05T03:32:42.835Z,14.5
2018-09-05T03:33:32.540Z,14.5
2018-09-05T03:34:22.857Z,14.5
2018-09-05T03:35:12.919Z,14.4
2018-09-05T03:36:02.708Z,14.4
2018-09-05T03:36:52.768Z,14.5
2018-09-05T03:37:42.832Z,14.4
2018-09-05T03:38:33.172Z,14.5
2018-09-05T03:39:22.677Z,14.4
2018-09-05T03:40:13.022Z,14.4
2018-09-05T03:41:03.587Z,14.4
2018-09-05T03:41:53.167Z,14.4
2018-09-05T03:42:43.509Z,14.4
2018-09-05T03:43:33.559Z,14.4
2018-09-05T03:44:23.638Z,14.4
2018-09-05T03:45:13.122Z,14.4
2018-09-05T03:46:03.859Z,14.4
2018-09-05T03:46:54.081Z,14.4
2018-09-05T03:47:43.978Z,14.4
2018-09-05T03:48:34.120Z,14.4
2018-09-05T03:49:24.096Z,14.4
2018-09-05T03:50:14.190Z,14.4
2018-09-05T03:51:04.254Z,14.4
2018-09-05T03:51:53.944Z,14.4
2018-09-05T03:52:43.714Z,14.4
2018-09-05T03:53:34.346Z,14.4
2018-09-05T03:54:24.444Z,14.4
2018-09-05T03:55:14.499Z,14.4
2018-09-05T03:56:04.257Z,14.4
2018-09-05T03:56:54.895Z,14.4
2018-09-05T03:57:44.681Z,14.4
2018-09-05T03:58:34.741Z,14.4
2018-09-05T03:59:24.794Z,14.4
2018-09-05T04:00:14.850Z,14.4
2018-09-05T04:01:05.166Z,14.4
2018-09-05T04:01:55.012Z,14.4
2018-09-05T04:02:45.043Z,14.4
2018-09-05T04:03:35.101Z,14.4
2018-09-05T04:04:25.172Z,14.4
2018-09-05T04:05:15.274Z,14.4
2018-09-05T04:06:05.303Z,14.4
2018-09-05T04:06:55.358Z,14.4
2018-09-05T04:07:45.425Z,14.4
2018-09-05T04:08:35.504Z,14.3
2018-09-05T04:09:25.558Z,14.3
2018-09-05T04:10:15.356Z,14.4
2018-09-05T04:11:05.687Z,14.4
2018-09-05T04:11:55.756Z,14.3
2018-09-05T04:12:45.819Z,14.3
2018-09-05T04:13:35.879Z,14.4
2018-09-05T04:14:25.940Z,14.3
2018-09-05T04:15:16.006Z,14.3
2018-09-05T04:16:06.074Z,14.4
2018-09-05T04:16:56.419Z,14.3
2018-09-05T04:17:46.215Z,14.4
2018-09-05T04:18:36.008Z,14.3
2018-09-05T04:19:26.167Z,14.4
2018-09-05T04:20:16.490Z,14.4
2018-09-05T04:21:06.196Z,14.4
2018-09-05T04:21:57.067Z,14.4
2018-09-05T04:22:46.624Z,14.4
2018-09-05T04:23:36.407Z,14.4
2018-09-05T04:24:26.739Z,14.4
2018-09-05T04:25:16.523Z,14.4
2018-09-05T04:26:07.016Z,14.4
2018-09-05T04:26:57.068Z,14.4
2018-09-05T04:27:46.998Z,14.4
2018-09-05T04:28:36.764Z,14.4
2018-09-05T04:29:27.417Z,14.4
2018-09-05T04:30:17.263Z,14.4
2018-09-05T04:31:07.250Z,14.4
2018-09-05T04:31:57.348Z,14.4
2018-09-05T04:32:47.362Z,14.4
2018-09-05T04:33:37.472Z,14.4
2018-09-05T04:34:27.480Z,14.4
2018-09-05T04:35:17.552Z,14.4
2018-09-05T04:36:07.880Z,14.4
2018-09-05T04:36:57.688Z,14.4
2018-09-05T04:37:47.745Z,14.4
2018-09-05T04:38:37.764Z,14.4
2018-09-05T04:39:27.890Z,14.4
2018-09-05T04:40:17.923Z,14.4
2018-09-05T04:41:07.997Z,14.5
2018-09-05T04:41:57.792Z,14.5
2018-09-05T04:42:47.592Z,14.5
2018-09-05T05:00:28.521Z,14.9
2018-09-05T05:01:18.281Z,15
2018-09-05T05:02:08.109Z,15.1
2018-09-05T05:02:58.415Z,15.1
2018-09-05T05:03:48.176Z,15.1
2018-09-05T05:04:38.940Z,15.2
2018-09-05T05:05:28.731Z,15.2
2018-09-05T05:06:18.656Z,15.3
2018-09-05T05:07:08.706Z,15.3
2018-09-05T05:07:58.767Z,15.3
2018-09-05T05:08:48.848Z,15.4
2018-09-05T05:09:38.929Z,15.4
2018-09-05T05:10:28.994Z,15.4
2018-09-05T05:11:19.029Z,15.4
2018-09-05T05:12:08.793Z,15.5
2018-09-05T05:12:59.148Z,15.5
2018-09-05T05:13:49.346Z,15.6
2018-09-05T05:14:39.283Z,15.6
2018-09-05T05:15:29.343Z,15.6
2018-09-05T05:16:19.415Z,15.6
2018-09-05T05:17:09.230Z,15.7
2018-09-05T05:17:59.574Z,15.7
2018-09-05T05:18:49.607Z,15.8
2018-09-05T05:19:39.710Z,15.8
2018-09-05T05:20:29.767Z,15.8
2018-09-05T05:21:19.585Z,15.8
2018-09-05T05:22:09.856Z,15.9
2018-09-05T05:22:59.929Z,15.9
2018-09-05T05:23:50.053Z,15.9
2018-09-05T05:24:40.322Z,16
2018-09-05T05:25:30.116Z,16.1
2018-09-05T05:26:20.183Z,16.1
2018-09-05T05:27:10.243Z,16.3
2018-09-05T05:28:00.318Z,16.4
2018-09-05T05:28:50.371Z,16.6
2018-09-05T05:29:40.542Z,16.9
2018-09-05T05:30:30.518Z,17.1
2018-09-05T05:31:20.345Z,17.5
2018-09-05T05:32:10.354Z,17.9
2018-09-05T05:33:01.133Z,18.3
2018-09-05T05:33:50.774Z,18.8
2018-09-05T05:34:41.641Z,19.2
2018-09-05T05:35:31.161Z,19.7
2018-09-05T05:36:20.703Z,20.1
2018-09-05T05:37:10.815Z,20.6
2018-09-05T05:38:01.503Z,21
2018-09-05T05:38:51.460Z,21.4
2018-09-05T05:39:42.431Z,21.8
2018-09-05T05:40:31.297Z,22.3
2018-09-05T05:41:21.589Z,22.6
2018-09-05T05:42:11.397Z,22.9
2018-09-05T05:43:01.189Z,23.2
2018-09-05T05:43:51.237Z,23.4
2018-09-05T05:44:41.309Z,23.7
2018-09-05T05:45:31.658Z,23.9
2018-09-05T05:46:21.708Z,24.2
2018-09-05T05:47:11.788Z,24.4
2018-09-05T05:48:01.840Z,24.7
2018-09-05T05:48:51.914Z,25
2018-09-05T05:49:41.967Z,25.4
2018-09-05T05:50:32.058Z,25.7
2018-09-05T05:51:21.541Z,26.1
2018-09-05T05:52:12.178Z,26.6
2018-09-05T05:53:02.233Z,26.9
2018-09-05T05:53:52.301Z,27.3
2018-09-05T05:54:42.375Z,27.6
2018-09-05T05:55:32.153Z,27.9
2018-09-05T05:56:22.455Z,28.2
2018-09-05T05:57:12.565Z,28.6
2018-09-05T05:58:02.330Z,28.9
2018-09-05T05:58:52.679Z,29.4
2018-09-05T05:59:42.748Z,29.8
2018-09-05T06:00:32.815Z,30.2
2018-09-05T06:01:23.130Z,30.6
2018-09-05T06:02:12.952Z,31.1
2018-09-05T06:03:03.003Z,31.5
2018-09-05T06:03:52.795Z,31.9
2018-09-05T06:04:43.093Z,32.4
2018-09-05T06:05:33.194Z,32.8
2018-09-05T06:06:24.683Z,33.3
2018-09-05T06:07:13.332Z,33.8
2018-09-05T06:08:03.385Z,34.2
2018-09-05T06:08:53.460Z,34.6
2018-09-05T06:09:43.519Z,35.1
2018-09-05T06:10:33.307Z,35.6
2018-09-05T06:11:23.667Z,36
2018-09-05T06:12:13.980Z,36.4
2018-09-05T06:13:03.772Z,36.9
2018-09-05T06:13:53.864Z,37.4
2018-09-05T06:14:43.900Z,37.8
2018-09-05T06:15:34.343Z,38.2
2018-09-05T06:16:23.760Z,38.5
2018-09-05T06:17:14.321Z,38.8
2018-09-05T06:18:04.684Z,39.2
2018-09-05T06:18:54.234Z,39.6
2018-09-05T06:19:44.301Z,40
2018-09-05T06:20:34.384Z,40.4
2018-09-05T06:21:24.135Z,40.9
2018-09-05T06:22:14.755Z,41.3
2018-09-05T06:23:04.571Z,41.7
2018-09-05T06:23:54.522Z,42.1
2018-09-05T06:24:44.421Z,42.6
2018-09-05T06:25:34.748Z,43
2018-09-05T06:26:24.824Z,43.4
2018-09-05T06:27:14.913Z,43.9
2018-09-05T06:28:04.949Z,44.3
2018-09-05T06:28:55.014Z,44.8
2018-09-05T06:29:44.791Z,45.2
2018-09-05T06:30:36.462Z,45.6
2018-09-05T06:31:25.429Z,46.1
2018-09-05T06:32:14.983Z,46.5
2018-09-05T06:33:05.346Z,46.9
2018-09-05T06:33:55.386Z,47.4
2018-09-05T06:34:45.455Z,47.8
2018-09-05T06:35:35.632Z,48.2
2018-09-05T06:36:25.579Z,48.6
2018-09-05T06:37:15.645Z,49.1
2018-09-05T06:38:05.421Z,49.4
2018-09-05T06:38:55.670Z,49.9
2018-09-05T06:39:45.842Z,50.3
2018-09-05T06:40:35.632Z,50.7
2018-09-05T06:41:25.988Z,51.1
2018-09-05T06:42:15.490Z,51.5
2018-09-05T06:43:05.861Z,51.9
2018-09-05T06:43:56.177Z,52.3
2018-09-05T06:44:46.235Z,52.8
2018-09-05T06:45:36.330Z,53.1
2018-09-05T06:46:26.068Z,53.5
2018-09-05T06:47:15.850Z,53.9
2018-09-05T06:48:06.264Z,54.3
2018-09-05T06:48:56.298Z,54.6
2018-09-05T06:49:46.612Z,54.9
2018-09-05T06:50:36.419Z,55.3
2018-09-05T06:51:27.185Z,55.6
2018-09-05T06:52:16.803Z,55.9
2018-09-05T06:53:06.887Z,56.2
2018-09-05T06:53:56.947Z,56.5
2018-09-05T06:54:47.014Z,56.8
2018-09-05T06:55:36.782Z,57.2
2018-09-05T06:56:27.119Z,57.6
2018-09-05T06:57:17.198Z,58
2018-09-05T06:58:07.447Z,58.4
2018-09-05T06:58:57.625Z,59.3
2018-09-05T06:59:47.404Z,60.2
2018-09-05T07:00:37.456Z,58.7
2018-09-05T07:01:27.537Z,56.7
2018-09-05T07:02:17.586Z,53.1
2018-09-05T07:03:07.363Z,50.3
2018-09-05T07:03:58.011Z,48.7
2018-09-05T07:04:47.781Z,47.7
2018-09-05T07:05:37.839Z,47
2018-09-05T07:06:27.916Z,46.7
2018-09-05T07:07:17.681Z,46.6
2018-09-05T07:08:08.036Z,46.9
2018-09-05T07:08:58.107Z,47.3
2018-09-05T07:09:48.213Z,47.8
2018-09-05T07:10:37.942Z,48.3
2018-09-05T07:11:28.028Z,48.9
2018-09-05T07:12:18.363Z,49.5
2018-09-05T07:13:08.430Z,50.1
2018-09-05T07:13:58.043Z,50.7
2018-09-05T07:14:48.553Z,51.3
2018-09-05T07:16:28.420Z,52.6
2018-09-05T07:17:18.768Z,53.1
2018-09-05T07:18:08.535Z,53.8
2018-09-05T07:18:58.583Z,54.4
2018-09-05T07:19:48.658Z,55
2018-09-05T07:20:38.717Z,55.6
2018-09-05T07:21:29.870Z,56.2
2018-09-05T07:22:18.858Z,56.6
2018-09-05T07:23:09.262Z,56.8
2018-09-05T07:23:59.277Z,56.8
2018-09-05T07:24:49.451Z,56.9
2018-09-05T07:25:39.394Z,57.1
2018-09-05T07:26:29.457Z,57.4
2018-09-05T07:27:19.241Z,57.9
2018-09-05T07:28:09.847Z,58.8
2018-09-05T07:28:59.671Z,60
2018-09-05T07:29:49.162Z,58.8
2018-09-05T07:30:39.913Z,57.4
2018-09-05T07:31:29.856Z,55.2
2018-09-05T07:32:19.918Z,53.1
2018-09-05T07:33:09.979Z,51.7
2018-09-05T07:33:59.757Z,50.8
2018-09-05T07:34:50.149Z,50.6
2018-09-05T07:35:40.310Z,50.7
2018-09-05T07:36:30.248Z,51
2018-09-05T07:37:20.101Z,51.4
2018-09-05T07:38:10.360Z,52
2018-09-05T07:39:00.148Z,52.7
2018-09-05T07:39:50.747Z,53.4
2018-09-05T07:40:40.545Z,54.1
2018-09-05T07:41:30.619Z,54.8
2018-09-05T07:42:20.681Z,55.6
2018-09-05T09:14:59.180Z,64.8
2018-09-05T09:15:48.701Z,64.7
2018-09-05T09:16:38.770Z,64.8
2018-09-05T09:17:29.115Z,64.9
2018-09-05T09:18:18.917Z,65
2018-09-05T09:19:09.235Z,65.1
2018-09-05T09:19:59.548Z,65.3
2018-09-05T09:20:49.620Z,65.3
2018-09-05T09:21:39.145Z,65.3
2018-09-05T09:22:29.484Z,65
2018-09-05T09:23:19.570Z,64.8
2018-09-05T09:24:09.635Z,64.6
2018-09-05T09:24:59.701Z,64.7
2018-09-05T09:25:49.446Z,64.9
2018-09-05T09:26:39.257Z,65.2
2018-09-05T09:27:29.877Z,65.6
2018-09-05T09:28:20.410Z,65.9
2018-09-05T09:29:09.447Z,66.1
2018-09-05T09:30:00.067Z,66.3
2018-09-05T09:30:49.869Z,66.4
2018-09-05T09:31:40.195Z,66.6
2018-09-05T09:32:30.297Z,66.8
2018-09-05T09:33:20.329Z,67
2018-09-05T09:34:10.120Z,67.3
2018-09-05T09:35:00.194Z,67.3
2018-09-05T09:35:50.249Z,66.8
2018-09-05T09:36:40.334Z,66.1
2018-09-05T09:37:30.109Z,65.8
2018-09-05T09:38:20.707Z,65.7
2018-09-05T09:39:10.796Z,65.8
2018-09-05T09:40:00.609Z,65.9
2018-09-05T09:40:50.926Z,66
2018-09-05T09:41:40.716Z,65.9
2018-09-05T09:42:31.038Z,65.8
2018-09-05T09:43:21.114Z,65.7
2018-09-05T09:44:11.194Z,65.6
2018-09-05T09:45:00.978Z,65.6
2018-09-05T09:45:51.348Z,65.7
2018-09-05T09:46:41.592Z,65.8
2018-09-05T09:47:31.161Z,65.9
2018-09-05T09:48:21.245Z,66
2018-09-05T09:49:11.570Z,66.1
2018-09-05T09:50:01.633Z,66.2
2018-09-05T09:50:51.148Z,66.2
2018-09-05T09:51:41.753Z,66.3
2018-09-05T09:52:32.072Z,66.3
2018-09-05T09:53:21.633Z,66.3
2018-09-05T09:54:11.668Z,66.3
2018-09-05T09:55:01.755Z,66.4
2018-09-05T09:55:51.615Z,66.4
2018-09-05T09:56:42.325Z,66.5
2018-09-05T09:57:31.952Z,66.6
2018-09-05T09:58:22.018Z,66.6
2018-09-05T09:59:12.191Z,66.7
2018-09-05T10:00:02.413Z,66.7
2018-09-05T10:00:51.968Z,66.7
2018-09-05T10:01:42.537Z,66.7
2018-09-05T10:02:32.289Z,66.8
2018-09-05T10:03:22.859Z,66.8
2018-09-05T10:04:12.943Z,66.8
2018-09-05T10:05:02.814Z,66.8
2018-09-05T10:05:52.322Z,66.8
2018-09-05T10:06:42.996Z,66.8
2018-09-05T10:07:33.063Z,66.8
2018-09-05T10:08:23.092Z,66.8
2018-09-05T10:09:13.124Z,66.8
2018-09-05T10:10:04.685Z,66.9
2018-09-05T10:10:53.249Z,66.9
2018-09-05T10:11:43.316Z,66.9
2018-09-05T10:12:33.392Z,66.9
2018-09-05T10:13:23.479Z,66.9
2018-09-05T10:14:13.531Z,66.9
2018-09-05T10:15:03.583Z,66.8
2018-09-05T10:15:53.654Z,66.8
2018-09-05T10:16:43.821Z,66.8
2018-09-05T10:17:33.780Z,66.8
2018-09-05T10:18:23.856Z,66.8
2018-09-05T10:19:13.641Z,66.9
2018-09-05T10:20:04.052Z,67
2018-09-05T10:20:54.311Z,67.1
2018-09-05T10:21:43.829Z,67.3
2018-09-05T10:22:34.564Z,67.3
2018-09-05T10:23:23.693Z,67.4
2018-09-05T10:24:14.313Z,67.3
2018-09-05T10:25:04.384Z,67.3
2018-09-05T10:25:54.496Z,67.3
2018-09-05T10:26:44.219Z,67.4
2018-09-05T10:27:34.591Z,67.5
2018-09-05T10:28:24.342Z,67.6
2018-09-05T10:29:14.418Z,67.7
2018-09-05T10:30:04.753Z,67.8
2018-09-05T10:30:54.808Z,67.8
2018-09-05T10:31:44.859Z,67.8
2018-09-05T10:32:34.668Z,67.8
2018-09-05T10:33:24.766Z,67.9
2018-09-05T10:34:14.503Z,68
2018-09-05T10:35:05.146Z,68.1
2018-09-05T10:35:54.945Z,68.3
2018-09-05T10:36:44.998Z,68.4
2018-09-05T10:37:35.075Z,68.3
2018-09-05T10:38:25.158Z,68.4
2018-09-05T10:39:15.282Z,68.4
2018-09-05T10:40:05.527Z,68.4
2018-09-05T10:40:55.038Z,68.4
2018-09-05T10:41:45.649Z,68.5
2018-09-05T10:42:35.999Z,68.5
2018-09-05T10:43:26.040Z,68.4
2018-09-05T10:44:16.191Z,68.4
2018-09-05T10:45:05.920Z,68.4
2018-09-05T10:45:55.985Z,68.5
2018-09-05T10:46:45.785Z,68.6
2018-09-05T10:47:35.830Z,68.8
2018-09-05T10:48:26.178Z,68.8
2018-09-05T10:49:16.244Z,68.9
2018-09-05T10:50:06.304Z,68.9
2018-09-05T10:50:56.369Z,68.9
2018-09-05T10:51:46.401Z,68.8
2018-09-05T10:52:36.214Z,68.8
2018-09-05T10:53:26.592Z,68.8
2018-09-05T10:54:16.654Z,68.8
2018-09-05T10:55:06.434Z,68.8
2018-09-05T10:55:56.777Z,68.9
2018-09-05T10:56:46.277Z,69
2018-09-05T10:57:37.142Z,69.1
2018-09-05T10:58:26.984Z,69.1
2018-09-05T10:59:16.467Z,69.1
2018-09-05T11:00:07.114Z,69.1
2018-09-05T11:00:56.880Z,69.2
2018-09-05T11:01:47.218Z,69.3
2018-09-05T11:02:37.003Z,69.3
2018-09-05T11:03:27.321Z,69.3
2018-09-05T11:04:17.322Z,69.3
2018-09-05T11:05:07.473Z,69.3
2018-09-05T11:05:57.273Z,69.3
2018-09-05T11:06:47.621Z,69.2
2018-09-05T11:07:37.433Z,69.2
2018-09-05T11:08:27.987Z,69.2
2018-09-05T11:09:17.853Z,69.3
2018-09-05T11:10:07.598Z,69.3
2018-09-05T11:10:58.492Z,69.2
2018-09-05T11:11:48.013Z,69.2
2018-09-05T11:12:37.795Z,69.2
2018-09-05T11:13:27.862Z,69.2
2018-09-05T11:14:18.210Z,69.1
2018-09-05T11:15:08.281Z,69.1
2018-09-05T11:15:58.049Z,69.1
2018-09-05T11:16:48.104Z,69.1
2018-09-05T11:17:38.450Z,69.1
2018-09-05T11:18:27.975Z,69.2
2018-09-05T11:19:18.305Z,69.3
2018-09-05T11:20:08.659Z,69.4
2018-09-05T11:20:58.462Z,69.4
2018-09-05T11:21:48.787Z,69.5
2018-09-05T11:22:38.841Z,69.6
2018-09-05T11:23:28.919Z,69.6
2018-09-05T11:24:18.695Z,69.7
2018-09-05T11:25:09.032Z,69.8
2018-09-05T11:25:59.109Z,69.6
2018-09-05T11:26:49.189Z,69
2018-09-05T11:27:39.215Z,68.1
2018-09-05T11:28:28.733Z,67.8
2018-09-05T11:29:19.414Z,67.9
2018-09-05T11:30:09.147Z,68.2
2018-09-05T11:30:59.494Z,68.1
2018-09-05T11:31:49.296Z,67.9
2018-09-05T11:32:39.351Z,67.9
2018-09-05T11:33:29.686Z,68
2018-09-05T11:34:20.008Z,68.1
2018-09-05T11:35:09.539Z,68.4
2018-09-05T11:35:59.886Z,68.5
2018-09-05T11:36:49.834Z,68.3
2018-09-05T11:37:40.013Z,67.3
2018-09-05T11:38:30.076Z,66.1
2018-09-05T11:39:20.401Z,65.1
2018-09-05T11:40:09.948Z,64.3
2018-09-05T11:40:59.998Z,63.6
2018-09-05T11:41:49.785Z,63.1
2018-09-05T11:42:40.409Z,63.1
2018-09-05T11:43:30.194Z,63.7
2018-09-05T11:44:20.790Z,64.4
2018-09-05T11:45:10.845Z,65.3
2018-09-05T11:46:00.656Z,66.5
2018-09-05T11:46:50.718Z,67.6
2018-09-05T11:47:40.854Z,69.3
2018-09-05T11:48:30.880Z,70.7
2018-09-05T11:49:21.201Z,70.3
2018-09-05T11:50:10.985Z,68.6
2018-09-05T11:51:00.776Z,65.9
2018-09-05T11:51:50.863Z,63.7
2018-09-05T11:52:41.201Z,62.1
2018-09-05T11:53:31.247Z,61
2018-09-05T11:54:21.024Z,60.6
2018-09-05T11:55:11.415Z,60.7
2018-09-05T11:56:01.506Z,61.1
2018-09-05T11:56:51.505Z,61.8
2018-09-05T11:57:41.314Z,62.7
2018-09-05T11:58:31.685Z,63.8
2018-09-05T11:59:21.748Z,64.8
2018-09-05T12:00:11.797Z,65.9
2018-09-05T12:01:01.877Z,66.9
2018-09-05T12:01:51.926Z,68.8
2018-09-05T12:02:41.741Z,69.6
2018-09-05T12:03:32.047Z,69.1
2018-09-05T12:04:22.109Z,67.9
2018-09-05T12:05:12.161Z,66.1
2018-09-05T12:06:02.454Z,64.6
2018-09-05T12:06:52.314Z,63.5
2018-09-05T12:07:42.368Z,62.8
2018-09-05T12:08:32.174Z,62.3
2018-09-05T12:09:22.221Z,62.2
2018-09-05T12:10:12.805Z,62.4
2018-09-05T12:11:02.888Z,63.1
2018-09-05T12:11:52.721Z,64.1
2018-09-05T12:12:42.464Z,65.1
2018-09-05T12:13:32.832Z,66
2018-09-05T12:14:22.883Z,66.9
2018-09-05T12:15:12.946Z,67.7
2018-09-05T12:16:02.723Z,69
2018-09-05T12:16:53.075Z,70.2
2018-09-05T12:17:43.138Z,69.8
2018-09-05T12:18:33.358Z,68.7
2018-09-05T12:19:23.297Z,66.6
2018-09-05T12:20:13.611Z,64.8
2018-09-05T12:21:03.418Z,63.2
2018-09-05T12:21:53.245Z,62.2
2018-09-05T12:22:43.548Z,61.6
2018-09-05T12:23:33.558Z,61.3
2018-09-05T12:24:23.407Z,61.3
2018-09-05T12:25:13.740Z,61.7
2018-09-05T12:26:03.520Z,62.4
2018-09-05T12:26:53.890Z,63.3
2018-09-05T12:27:43.660Z,64.1
2018-09-05T12:28:34.002Z,64.9
2018-09-05T12:29:24.335Z,65.7
2018-09-05T12:30:13.827Z,66.4
2018-09-05T12:31:03.608Z,67
2018-09-05T12:31:53.967Z,67.6
2018-09-05T12:32:44.330Z,68.3
2018-09-05T12:33:34.090Z,69.6
2018-09-05T12:34:24.147Z,69.3
2018-09-05T12:35:14.212Z,68.3
2018-09-05T12:36:04.562Z,66.3
2018-09-05T12:36:54.619Z,64.4
2018-09-05T12:37:44.702Z,62.9
2018-09-05T12:38:34.767Z,61.8
2018-09-05T12:39:24.842Z,61
2018-09-05T12:40:14.609Z,60.6
2018-09-05T12:41:04.956Z,60.4
2018-09-05T12:41:55.027Z,60.8
2018-09-05T12:42:45.091Z,61.3
2018-09-05T12:43:35.166Z,61.9
2018-09-05T12:44:25.243Z,62.6
2018-09-05T12:45:15.294Z,63.2
2018-09-05T12:46:05.062Z,63.8
2018-09-05T12:46:55.429Z,64.3
2018-09-05T12:47:45.521Z,64.9
2018-09-05T12:48:35.256Z,65.4
2018-09-05T12:49:25.357Z,65.9
2018-09-05T12:50:15.419Z,66.4
2018-09-05T12:51:05.473Z,66.9
2018-09-05T12:51:55.804Z,67.4
2018-09-05T12:52:45.856Z,67.8
2018-09-05T12:53:35.388Z,68.9
2018-09-05T12:54:25.721Z,69.1
2018-09-05T12:55:15.773Z,68
2018-09-05T12:56:06.149Z,66.1
2018-09-05T12:56:56.246Z,63.9
2018-09-05T12:57:46.258Z,62.1
2018-09-05T12:58:36.055Z,60.9
2018-09-05T12:59:27.111Z,60.1
2018-09-05T13:00:15.903Z,59.5
2018-09-05T13:01:06.521Z,59.3
2018-09-05T13:01:56.582Z,59.5
2018-09-05T13:02:46.647Z,59.8
2018-09-05T13:03:36.676Z,60
2018-09-05T13:04:26.823Z,60.3
2018-09-05T13:05:16.569Z,60.7
2018-09-05T13:06:06.946Z,61.1
2018-09-05T13:06:57.040Z,61.5
2018-09-05T13:07:47.060Z,61.8
2018-09-05T13:08:37.100Z,62.3
2018-09-05T13:09:27.234Z,62.6
2018-09-05T13:10:17.237Z,62.9
2018-09-05T13:11:07.023Z,63.3
2018-09-05T13:11:57.382Z,63.6
2018-09-05T13:12:47.488Z,63.9
2018-09-05T13:13:37.813Z,64.3
2018-09-05T13:14:27.013Z,64.4
2018-09-05T13:15:17.351Z,64.6
2018-09-05T13:16:07.969Z,64.8
2018-09-05T13:16:57.777Z,65